sensor_id;sensor_type;location;lat;lon;timestamp;temperature;humidity
44729;DHT22;30457;53.590;9.922;2022-10-31T00:04:23;17.40;62.40
44729;DHT22;30457;53.590;9.922;2022-10-31T00:08:53;17.50;62.80
44729;DHT22;30457;53.590;9.922;2022-10-31T00:13:19;17.50;63.00
44729;DHT22;30457;53.590;9.922;2022-10-31T00:17:45;17.60;62.60
44729;DHT22;30457;53.590;9.922;2022-10-31T00:22:10;17.70;62.50
44729;DHT22;30457;53.590;9.922;2022-10-31T00:26:36;17.70;62.30
44729;DHT22;30457;53.590;9.922;2022-10-31T00:31:04;17.80;62.10
44729;DHT22;30457;53.590;9.922;2022-10-31T00:35:29;17.70;61.90
44729;DHT22;30457;53.590;9.922;2022-10-31T00:39:55;17.80;61.60
44729;DHT22;30457;53.590;9.922;2022-10-31T00:44:20;17.80;61.60
44729;DHT22;30457;53.590;9.922;2022-10-31T00:48:46;17.80;61.60
44729;DHT22;30457;53.590;9.922;2022-10-31T00:53:12;17.80;61.50
44729;DHT22;30457;53.590;9.922;2022-10-31T00:57:37;17.70;61.80
44729;DHT22;30457;53.590;9.922;2022-10-31T01:02:04;17.70;62.00
44729;DHT22;30457;53.590;9.922;2022-10-31T01:06:29;17.70;62.30
44729;DHT22;30457;53.590;9.922;2022-10-31T01:11:01;17.80;62.60
44729;DHT22;30457;53.590;9.922;2022-10-31T01:15:27;17.80;62.80
44729;DHT22;30457;53.590;9.922;2022-10-31T01:19:52;17.80;62.40
44729;DHT22;30457;53.590;9.922;2022-10-31T01:24:18;17.80;62.50
44729;DHT22;30457;53.590;9.922;2022-10-31T01:28:49;17.80;62.50
44729;DHT22;30457;53.590;9.922;2022-10-31T01:33:14;17.80;62.90
44729;DHT22;30457;53.590;9.922;2022-10-31T01:37:40;17.80;62.80
44729;DHT22;30457;53.590;9.922;2022-10-31T01:42:06;17.80;63.00
44729;DHT22;30457;53.590;9.922;2022-10-31T01:46:37;17.80;63.00
44729;DHT22;30457;53.590;9.922;2022-10-31T01:51:04;17.90;63.50
44729;DHT22;30457;53.590;9.922;2022-10-31T01:55:34;17.90;63.30
44729;DHT22;30457;53.590;9.922;2022-10-31T02:00:04;17.90;63.20
44729;DHT22;30457;53.590;9.922;2022-10-31T02:04:39;17.90;63.00
44729;DHT22;30457;53.590;9.922;2022-10-31T02:09:06;17.90;62.80
44729;DHT22;30457;53.590;9.922;2022-10-31T02:13:33;17.90;63.10
44729;DHT22;30457;53.590;9.922;2022-10-31T02:17:59;17.90;63.20
44729;DHT22;30457;53.590;9.922;2022-10-31T02:31:49;17.90;63.20
44729;DHT22;30457;53.590;9.922;2022-10-31T02:41:37;17.90;63.80
44729;DHT22;30457;53.590;9.922;2022-10-31T02:50:57;17.90;63.50
44729;DHT22;30457;53.590;9.922;2022-10-31T03:00:00;17.90;62.60
44729;DHT22;30457;53.590;9.922;2022-10-31T03:13:57;17.80;62.90
44729;DHT22;30457;53.590;9.922;2022-10-31T03:18:27;17.80;63.30
44729;DHT22;30457;53.590;9.922;2022-10-31T03:22:54;17.70;62.80
44729;DHT22;30457;53.590;9.922;2022-10-31T03:27:24;17.70;62.90
44729;DHT22;30457;53.590;9.922;2022-10-31T03:31:58;17.70;63.00
44729;DHT22;30457;53.590;9.922;2022-10-31T03:36:26;17.70;63.20
44729;DHT22;30457;53.590;9.922;2022-10-31T03:40:54;17.60;63.10
44729;DHT22;30457;53.590;9.922;2022-10-31T03:45:27;17.60;64.00
44729;DHT22;30457;53.590;9.922;2022-10-31T03:49:55;17.60;63.60
44729;DHT22;30457;53.590;9.922;2022-10-31T03:59:37;17.60;63.80
44729;DHT22;30457;53.590;9.922;2022-10-31T04:04:06;17.60;63.80
44729;DHT22;30457;53.590;9.922;2022-10-31T04:08:36;17.60;63.40
44729;DHT22;30457;53.590;9.922;2022-10-31T04:13:09;17.50;63.20
44729;DHT22;30457;53.590;9.922;2022-10-31T04:17:45;17.50;63.50
44729;DHT22;30457;53.590;9.922;2022-10-31T04:22:12;17.50;63.50
44729;DHT22;30457;53.590;9.922;2022-10-31T04:26:38;17.50;63.70
44729;DHT22;30457;53.590;9.922;2022-10-31T04:31:05;17.50;63.80
44729;DHT22;30457;53.590;9.922;2022-10-31T04:35:33;17.50;64.00
44729;DHT22;30457;53.590;9.922;2022-10-31T04:39:59;17.50;63.80
44729;DHT22;30457;53.590;9.922;2022-10-31T04:44:59;17.50;64.00
44729;DHT22;30457;53.590;9.922;2022-10-31T04:49:25;17.50;64.10
44729;DHT22;30457;53.590;9.922;2022-10-31T04:53:51;17.50;64.00
44729;DHT22;30457;53.590;9.922;2022-10-31T04:58:27;17.50;64.00
44729;DHT22;30457;53.590;9.922;2022-10-31T05:02:57;17.50;63.90
44729;DHT22;30457;53.590;9.922;2022-10-31T05:07:25;17.50;63.80
44729;DHT22;30457;53.590;9.922;2022-10-31T05:11:50;17.50;63.80
44729;DHT22;30457;53.590;9.922;2022-10-31T05:16:36;17.50;63.90
44729;DHT22;30457;53.590;9.922;2022-10-31T05:21:37;17.50;63.90
44729;DHT22;30457;53.590;9.922;2022-10-31T05:26:03;17.50;63.70
44729;DHT22;30457;53.590;9.922;2022-10-31T05:30:31;17.50;63.70
44729;DHT22;30457;53.590;9.922;2022-10-31T05:34:57;17.50;63.90
44729;DHT22;30457;53.590;9.922;2022-10-31T05:39:43;17.50;64.00
44729;DHT22;30457;53.590;9.922;2022-10-31T05:44:13;17.50;64.00
44729;DHT22;30457;53.590;9.922;2022-10-31T05:48:51;17.50;64.00
44729;DHT22;30457;53.590;9.922;2022-10-31T05:53:55;17.50;64.10
44729;DHT22;30457;53.590;9.922;2022-10-31T05:58:21;17.50;64.10
44729;DHT22;30457;53.590;9.922;2022-10-31T06:03:00;17.50;64.20
44729;DHT22;30457;53.590;9.922;2022-10-31T06:07:39;17.50;65.30
44729;DHT22;30457;53.590;9.922;2022-10-31T06:12:06;17.50;64.30
44729;DHT22;30457;53.590;9.922;2022-10-31T06:16:58;17.50;64.20
44729;DHT22;30457;53.590;9.922;2022-10-31T06:21:52;17.50;64.20
44729;DHT22;30457;53.590;9.922;2022-10-31T06:26:18;17.50;64.20
44729;DHT22;30457;53.590;9.922;2022-10-31T06:30:45;17.50;64.20
44729;DHT22;30457;53.590;9.922;2022-10-31T06:35:10;17.50;64.20
44729;DHT22;30457;53.590;9.922;2022-10-31T06:39:36;17.50;64.20
44729;DHT22;30457;53.590;9.922;2022-10-31T06:44:03;17.50;64.40
44729;DHT22;30457;53.590;9.922;2022-10-31T06:48:49;17.60;64.50
44729;DHT22;30457;53.590;9.922;2022-10-31T06:53:19;17.60;64.10
44729;DHT22;30457;53.590;9.922;2022-10-31T06:57:50;17.60;64.10
44729;DHT22;30457;53.590;9.922;2022-10-31T07:02:16;17.60;64.30
44729;DHT22;30457;53.590;9.922;2022-10-31T07:06:42;17.60;64.20
44729;DHT22;30457;53.590;9.922;2022-10-31T07:11:08;17.60;64.10
44729;DHT22;30457;53.590;9.922;2022-10-31T07:15:35;17.60;64.10
44729;DHT22;30457;53.590;9.922;2022-10-31T07:20:02;17.60;64.10
44729;DHT22;30457;53.590;9.922;2022-10-31T07:24:29;17.60;64.10
44729;DHT22;30457;53.590;9.922;2022-10-31T07:28:55;17.60;63.90
44729;DHT22;30457;53.590;9.922;2022-10-31T07:33:24;17.60;63.90
44729;DHT22;30457;53.590;9.922;2022-10-31T07:38:13;17.70;64.20
44729;DHT22;30457;53.590;9.922;2022-10-31T07:42:41;17.60;63.50
44729;DHT22;30457;53.590;9.922;2022-10-31T07:47:26;17.60;63.30
44729;DHT22;30457;53.590;9.922;2022-10-31T07:52:14;17.60;63.30
44729;DHT22;30457;53.590;9.922;2022-10-31T07:57:18;17.60;63.50
44729;DHT22;30457;53.590;9.922;2022-10-31T08:01:44;17.60;63.50
44729;DHT22;30457;53.590;9.922;2022-10-31T08:06:28;17.60;63.40
44729;DHT22;30457;53.590;9.922;2022-10-31T08:11:18;17.50;63.40
44729;DHT22;30457;53.590;9.922;2022-10-31T08:15:44;17.60;63.60
44729;DHT22;30457;53.590;9.922;2022-10-31T08:20:15;17.60;63.80
44729;DHT22;30457;53.590;9.922;2022-10-31T08:24:44;17.60;63.80
44729;DHT22;30457;53.590;9.922;2022-10-31T08:29:10;17.70;63.80
44729;DHT22;30457;53.590;9.922;2022-10-31T08:33:37;17.70;63.70
44729;DHT22;30457;53.590;9.922;2022-10-31T08:38:12;17.70;63.40
44729;DHT22;30457;53.590;9.922;2022-10-31T08:42:39;17.80;63.90
44729;DHT22;30457;53.590;9.922;2022-10-31T08:47:05;17.80;64.00
44729;DHT22;30457;53.590;9.922;2022-10-31T08:51:33;17.90;63.90
44729;DHT22;30457;53.590;9.922;2022-10-31T08:55:58;18.00;64.20
44729;DHT22;30457;53.590;9.922;2022-10-31T09:00:25;18.00;63.90
44729;DHT22;30457;53.590;9.922;2022-10-31T09:05:00;18.10;64.00
44729;DHT22;30457;53.590;9.922;2022-10-31T09:09:25;18.10;63.70
44729;DHT22;30457;53.590;9.922;2022-10-31T09:13:52;18.20;63.90
44729;DHT22;30457;53.590;9.922;2022-10-31T09:18:36;18.20;63.90
44729;DHT22;30457;53.590;9.922;2022-10-31T09:23:05;18.30;63.90
44729;DHT22;30457;53.590;9.922;2022-10-31T09:27:33;18.40;63.70
44729;DHT22;30457;53.590;9.922;2022-10-31T09:31:59;18.40;63.40
44729;DHT22;30457;53.590;9.922;2022-10-31T09:36:27;18.40;63.30
44729;DHT22;30457;53.590;9.922;2022-10-31T09:45:45;18.50;62.40
44729;DHT22;30457;53.590;9.922;2022-10-31T09:55:44;18.50;63.10
44729;DHT22;30457;53.590;9.922;2022-10-31T10:00:16;18.60;62.90
44729;DHT22;30457;53.590;9.922;2022-10-31T10:05:02;18.60;63.20
44729;DHT22;30457;53.590;9.922;2022-10-31T10:09:30;18.60;63.30
44729;DHT22;30457;53.590;9.922;2022-10-31T10:14:32;18.70;63.20
44729;DHT22;30457;53.590;9.922;2022-10-31T10:19:31;18.70;62.60
44729;DHT22;30457;53.590;9.922;2022-10-31T10:24:27;18.70;62.40
44729;DHT22;30457;53.590;9.922;2022-10-31T10:29:02;18.80;62.30
44729;DHT22;30457;53.590;9.922;2022-10-31T10:33:44;18.80;62.70
44729;DHT22;30457;53.590;9.922;2022-10-31T10:38:21;18.80;62.40
44729;DHT22;30457;53.590;9.922;2022-10-31T10:47:58;18.90;61.90
44729;DHT22;30457;53.590;9.922;2022-10-31T11:01:32;18.90;62.10
44729;DHT22;30457;53.590;9.922;2022-10-31T11:05:58;19.00;61.80
44729;DHT22;30457;53.590;9.922;2022-10-31T11:10:24;19.00;61.80
44729;DHT22;30457;53.590;9.922;2022-10-31T11:14:59;19.00;61.90
44729;DHT22;30457;53.590;9.922;2022-10-31T11:19:26;19.10;61.60
44729;DHT22;30457;53.590;9.922;2022-10-31T11:24:15;19.10;61.20
44729;DHT22;30457;53.590;9.922;2022-10-31T11:28:41;19.10;60.80
44729;DHT22;30457;53.590;9.922;2022-10-31T11:37:53;19.20;61.30
44729;DHT22;30457;53.590;9.922;2022-10-31T11:42:56;19.20;61.50
44729;DHT22;30457;53.590;9.922;2022-10-31T11:47:16;19.30;61.60
44729;DHT22;30457;53.590;9.922;2022-10-31T11:51:42;19.30;61.10
44729;DHT22;30457;53.590;9.922;2022-10-31T11:56:15;19.40;61.20
44729;DHT22;30457;53.590;9.922;2022-10-31T12:00:49;19.50;60.20
44729;DHT22;30457;53.590;9.922;2022-10-31T12:05:21;19.50;60.00
44729;DHT22;30457;53.590;9.922;2022-10-31T12:09:48;19.50;60.00
44729;DHT22;30457;53.590;9.922;2022-10-31T12:14:17;19.60;60.00
44729;DHT22;30457;53.590;9.922;2022-10-31T12:19:11;19.50;59.50
44729;DHT22;30457;53.590;9.922;2022-10-31T12:33:28;19.50;59.30
44729;DHT22;30457;53.590;9.922;2022-10-31T12:38:13;19.50;59.20
44729;DHT22;30457;53.590;9.922;2022-10-31T12:47:34;19.50;59.40
44729;DHT22;30457;53.590;9.922;2022-10-31T12:52:42;19.50;59.00
44729;DHT22;30457;53.590;9.922;2022-10-31T12:57:36;19.50;58.80
44729;DHT22;30457;53.590;9.922;2022-10-31T13:02:27;19.50;58.70
44729;DHT22;30457;53.590;9.922;2022-10-31T13:07:01;19.40;58.60
44729;DHT22;30457;53.590;9.922;2022-10-31T13:11:40;19.40;59.20
44729;DHT22;30457;53.590;9.922;2022-10-31T13:16:17;19.40;58.50
44729;DHT22;30457;53.590;9.922;2022-10-31T13:20:45;19.40;58.20
44729;DHT22;30457;53.590;9.922;2022-10-31T13:25:16;19.40;58.20
44729;DHT22;30457;53.590;9.922;2022-10-31T13:30:03;19.30;58.10
44729;DHT22;30457;53.590;9.922;2022-10-31T13:34:51;19.30;58.00
44729;DHT22;30457;53.590;9.922;2022-10-31T13:44:17;19.30;58.50
44729;DHT22;30457;53.590;9.922;2022-10-31T13:48:43;19.30;58.80
44729;DHT22;30457;53.590;9.922;2022-10-31T13:57:43;19.30;58.60
44729;DHT22;30457;53.590;9.922;2022-10-31T14:02:16;19.40;58.50
44729;DHT22;30457;53.590;9.922;2022-10-31T14:11:24;19.40;58.60
44729;DHT22;30457;53.590;9.922;2022-10-31T14:15:56;19.50;58.60
44729;DHT22;30457;53.590;9.922;2022-10-31T14:20:34;19.40;58.30
44729;DHT22;30457;53.590;9.922;2022-10-31T14:25:01;19.50;58.20
44729;DHT22;30457;53.590;9.922;2022-10-31T14:29:31;19.50;58.20
44729;DHT22;30457;53.590;9.922;2022-10-31T14:34:00;19.40;58.00
44729;DHT22;30457;53.590;9.922;2022-10-31T14:48:14;19.40;57.90
44729;DHT22;30457;53.590;9.922;2022-10-31T14:52:47;19.30;57.70
44729;DHT22;30457;53.590;9.922;2022-10-31T14:57:23;19.30;58.20
44729;DHT22;30457;53.590;9.922;2022-10-31T15:01:58;19.30;57.80
44729;DHT22;30457;53.590;9.922;2022-10-31T15:06:24;19.30;57.90
44729;DHT22;30457;53.590;9.922;2022-10-31T15:10:50;19.20;57.90
44729;DHT22;30457;53.590;9.922;2022-10-31T15:15:26;19.20;57.70
44729;DHT22;30457;53.590;9.922;2022-10-31T15:19:52;19.20;57.50
44729;DHT22;30457;53.590;9.922;2022-10-31T15:24:18;19.10;57.90
44729;DHT22;30457;53.590;9.922;2022-10-31T15:28:44;19.00;57.70
44729;DHT22;30457;53.590;9.922;2022-10-31T15:33:20;19.00;57.70
44729;DHT22;30457;53.590;9.922;2022-10-31T15:37:46;19.00;57.80
44729;DHT22;30457;53.590;9.922;2022-10-31T15:47:02;18.80;58.00
44729;DHT22;30457;53.590;9.922;2022-10-31T15:51:32;18.80;58.10
44729;DHT22;30457;53.590;9.922;2022-10-31T15:56:01;18.80;58.10
44729;DHT22;30457;53.590;9.922;2022-10-31T16:00:34;18.70;58.10
44729;DHT22;30457;53.590;9.922;2022-10-31T16:05:00;18.70;58.20
44729;DHT22;30457;53.590;9.922;2022-10-31T16:09:26;18.60;58.70
44729;DHT22;30457;53.590;9.922;2022-10-31T16:14:03;18.60;58.20
44729;DHT22;30457;53.590;9.922;2022-10-31T16:18:35;18.50;58.30
44729;DHT22;30457;53.590;9.922;2022-10-31T16:23:02;18.50;58.40
44729;DHT22;30457;53.590;9.922;2022-10-31T16:27:32;18.40;58.40
44729;DHT22;30457;53.590;9.922;2022-10-31T16:31:58;18.40;58.60
44729;DHT22;30457;53.590;9.922;2022-10-31T16:36:33;18.30;58.60
44729;DHT22;30457;53.590;9.922;2022-10-31T16:41:00;18.30;58.70
44729;DHT22;30457;53.590;9.922;2022-10-31T16:45:29;18.20;58.60
44729;DHT22;30457;53.590;9.922;2022-10-31T16:49:55;18.20;58.70
44729;DHT22;30457;53.590;9.922;2022-10-31T16:54:25;18.20;58.80
44729;DHT22;30457;53.590;9.922;2022-10-31T16:58:50;18.10;58.80
44729;DHT22;30457;53.590;9.922;2022-10-31T17:03:16;18.10;58.90
44729;DHT22;30457;53.590;9.922;2022-10-31T17:07:42;18.00;59.10
44729;DHT22;30457;53.590;9.922;2022-10-31T17:12:14;18.00;59.70
44729;DHT22;30457;53.590;9.922;2022-10-31T17:16:43;17.90;59.30
44729;DHT22;30457;53.590;9.922;2022-10-31T17:21:18;17.90;59.20
44729;DHT22;30457;53.590;9.922;2022-10-31T17:25:44;17.90;59.20
44729;DHT22;30457;53.590;9.922;2022-10-31T17:30:13;17.90;59.10
44729;DHT22;30457;53.590;9.922;2022-10-31T17:34:39;17.80;59.10
44729;DHT22;30457;53.590;9.922;2022-10-31T17:39:04;17.80;59.20
44729;DHT22;30457;53.590;9.922;2022-10-31T17:43:31;17.80;59.20
44729;DHT22;30457;53.590;9.922;2022-10-31T17:47:57;17.70;59.20
44729;DHT22;30457;53.590;9.922;2022-10-31T17:52:23;17.60;59.30
44729;DHT22;30457;53.590;9.922;2022-10-31T17:56:48;17.60;59.50
44729;DHT22;30457;53.590;9.922;2022-10-31T18:01:16;17.50;59.70
44729;DHT22;30457;53.590;9.922;2022-10-31T18:05:50;17.50;59.80
44729;DHT22;30457;53.590;9.922;2022-10-31T18:10:17;17.50;59.90
44729;DHT22;30457;53.590;9.922;2022-10-31T18:14:42;17.50;59.90
44729;DHT22;30457;53.590;9.922;2022-10-31T18:19:12;17.50;59.90
44729;DHT22;30457;53.590;9.922;2022-10-31T18:23:37;17.50;60.00
44729;DHT22;30457;53.590;9.922;2022-10-31T18:28:04;17.50;60.00
44729;DHT22;30457;53.590;9.922;2022-10-31T18:32:30;17.50;60.30
44729;DHT22;30457;53.590;9.922;2022-10-31T18:36:56;17.50;60.20
44729;DHT22;30457;53.590;9.922;2022-10-31T18:41:21;17.50;60.20
44729;DHT22;30457;53.590;9.922;2022-10-31T18:45:47;17.50;60.20
44729;DHT22;30457;53.590;9.922;2022-10-31T18:50:13;17.50;60.30
44729;DHT22;30457;53.590;9.922;2022-10-31T18:54:38;17.50;60.30
44729;DHT22;30457;53.590;9.922;2022-10-31T18:59:04;17.50;60.30
44729;DHT22;30457;53.590;9.922;2022-10-31T19:03:29;17.50;60.10
44729;DHT22;30457;53.590;9.922;2022-10-31T19:07:55;17.50;60.10
44729;DHT22;30457;53.590;9.922;2022-10-31T19:12:20;17.50;60.10
44729;DHT22;30457;53.590;9.922;2022-10-31T19:16:46;17.40;60.20
44729;DHT22;30457;53.590;9.922;2022-10-31T19:21:16;17.40;60.30
44729;DHT22;30457;53.590;9.922;2022-10-31T19:25:42;17.40;60.30
44729;DHT22;30457;53.590;9.922;2022-10-31T19:30:08;17.40;60.40
44729;DHT22;30457;53.590;9.922;2022-10-31T19:34:34;17.40;60.50
44729;DHT22;30457;53.590;9.922;2022-10-31T19:38:59;17.40;60.50
44729;DHT22;30457;53.590;9.922;2022-10-31T19:43:26;17.40;60.40
44729;DHT22;30457;53.590;9.922;2022-10-31T19:47:52;17.40;61.30
44729;DHT22;30457;53.590;9.922;2022-10-31T19:52:18;17.40;60.70
44729;DHT22;30457;53.590;9.922;2022-10-31T19:56:44;17.30;60.70
44729;DHT22;30457;53.590;9.922;2022-10-31T20:01:16;17.30;60.80
44729;DHT22;30457;53.590;9.922;2022-10-31T20:05:42;17.30;61.00
44729;DHT22;30457;53.590;9.922;2022-10-31T20:10:09;17.30;60.80
44729;DHT22;30457;53.590;9.922;2022-10-31T20:14:34;17.30;61.00
44729;DHT22;30457;53.590;9.922;2022-10-31T20:19:00;17.30;61.00
44729;DHT22;30457;53.590;9.922;2022-10-31T20:23:25;17.30;61.10
44729;DHT22;30457;53.590;9.922;2022-10-31T20:27:51;17.20;61.10
44729;DHT22;30457;53.590;9.922;2022-10-31T20:32:18;17.20;61.30
44729;DHT22;30457;53.590;9.922;2022-10-31T20:36:43;17.20;61.40
44729;DHT22;30457;53.590;9.922;2022-10-31T20:41:10;17.20;61.50
44729;DHT22;30457;53.590;9.922;2022-10-31T20:45:36;17.20;61.60
44729;DHT22;30457;53.590;9.922;2022-10-31T20:50:02;17.20;61.60
44729;DHT22;30457;53.590;9.922;2022-10-31T20:54:29;17.20;61.80
44729;DHT22;30457;53.590;9.922;2022-10-31T20:58:56;17.20;61.80
44729;DHT22;30457;53.590;9.922;2022-10-31T21:03:22;17.20;62.00
44729;DHT22;30457;53.590;9.922;2022-10-31T21:07:48;17.20;62.10
44729;DHT22;30457;53.590;9.922;2022-10-31T21:12:14;17.20;62.10
44729;DHT22;30457;53.590;9.922;2022-10-31T21:16:39;17.20;62.20
44729;DHT22;30457;53.590;9.922;2022-10-31T21:21:14;17.20;62.30
44729;DHT22;30457;53.590;9.922;2022-10-31T21:25:41;17.20;62.60
44729;DHT22;30457;53.590;9.922;2022-10-31T21:30:07;17.20;62.30
44729;DHT22;30457;53.590;9.922;2022-10-31T21:34:33;17.20;62.50
44729;DHT22;30457;53.590;9.922;2022-10-31T21:38:58;17.20;62.60
44729;DHT22;30457;53.590;9.922;2022-10-31T21:43:24;17.20;62.70
44729;DHT22;30457;53.590;9.922;2022-10-31T21:47:49;17.20;62.80
44729;DHT22;30457;53.590;9.922;2022-10-31T21:52:15;17.20;62.90
44729;DHT22;30457;53.590;9.922;2022-10-31T21:56:41;17.20;62.90
44729;DHT22;30457;53.590;9.922;2022-10-31T22:01:06;17.20;63.60
44729;DHT22;30457;53.590;9.922;2022-10-31T22:05:33;17.20;62.90
44729;DHT22;30457;53.590;9.922;2022-10-31T22:09:58;17.20;62.90
44729;DHT22;30457;53.590;9.922;2022-10-31T22:14:24;17.20;63.00
44729;DHT22;30457;53.590;9.922;2022-10-31T22:18:52;17.20;63.10
44729;DHT22;30457;53.590;9.922;2022-10-31T22:23:18;17.20;63.10
44729;DHT22;30457;53.590;9.922;2022-10-31T22:27:43;17.20;64.00
44729;DHT22;30457;53.590;9.922;2022-10-31T22:32:09;17.20;63.10
44729;DHT22;30457;53.590;9.922;2022-10-31T22:36:35;17.20;63.20
44729;DHT22;30457;53.590;9.922;2022-10-31T22:41:00;17.20;63.30
44729;DHT22;30457;53.590;9.922;2022-10-31T22:45:26;17.20;63.30
44729;DHT22;30457;53.590;9.922;2022-10-31T22:49:52;17.20;63.30
44729;DHT22;30457;53.590;9.922;2022-10-31T22:54:17;17.20;63.30
44729;DHT22;30457;53.590;9.922;2022-10-31T22:58:43;17.20;63.30
44729;DHT22;30457;53.590;9.922;2022-10-31T23:03:09;17.20;63.30
44729;DHT22;30457;53.590;9.922;2022-10-31T23:07:34;17.20;63.40
44729;DHT22;30457;53.590;9.922;2022-10-31T23:12:00;17.20;63.50
44729;DHT22;30457;53.590;9.922;2022-10-31T23:16:47;17.20;63.50
44729;DHT22;30457;53.590;9.922;2022-10-31T23:21:13;17.20;63.20
44729;DHT22;30457;53.590;9.922;2022-10-31T23:25:57;17.20;63.50
44729;DHT22;30457;53.590;9.922;2022-10-31T23:30:44;17.20;63.50
44729;DHT22;30457;53.590;9.922;2022-10-31T23:35:10;17.10;63.50
44729;DHT22;30457;53.590;9.922;2022-10-31T23:39:35;17.10;63.60
44729;DHT22;30457;53.590;9.922;2022-10-31T23:44:01;17.10;63.70
44729;DHT22;30457;53.590;9.922;2022-10-31T23:48:26;17.10;63.80
44729;DHT22;30457;53.590;9.922;2022-10-31T23:52:52;17.10;63.80
44729;DHT22;30457;53.590;9.922;2022-10-31T23:57:18;17.10;63.70
